Dolgellau, United Kingdom
Current Conditions -  °F | °C
As of 11:50 PM on Friday 28 Nov 2014 (Local Time) from EGOV Reporting Station
Haze Haze  
Wind Chill: 44°   Ceiling: Unl
Heat Index: 48°   Visibility: 4mi
Dew Point: 46°   Wind: 9mph
Humidity: 93%   Direction: 70°ENE
Pressure: 29.71"   Gusts: NA
Location:  52.74°N, 3.89°W
Report Text: EGOV 282350Z AUTO 07008KT 7000 HZ NCD 09/08 Q1006
Loading
Personal Weather Stations






























Interactive Weather Map New forecast layout! Learn more

10-Day Weather Forecast

Advertisements
Track Severe Weather on mobile